Time;durP1;ratioP1;P1;durP2;ratioP2;P2;SDS_P1;SDS_P2;PMS_P1;PMS_P2;Temp;Humidity;BMP_temperature;BMP_pressure;BME280_temperature;BME280_humidity;BME280_pressure;Samples;Min_cycle;Max_cycle;Signal;HPM_P1;HPM_P2
2022/09/18 00:02:01;;;;;;;2.40;1.60;;;9.40;92.10;;;;;;4997574;28;20210;-58
2022/09/18 00:04:27;;;;;;;4.60;1.50;;;9.40;92.50;;;;;;4998159;28;20188;-60
2022/09/18 00:06:53;;;;;;;2.50;1.47;;;9.40;93.20;;;;;;4998069;28;20482;-59
2022/09/18 00:09:19;;;;;;;3.70;1.63;;;9.40;93.40;;;;;;5003613;28;20499;-58
2022/09/18 00:11:48;;;;;;;1.57;1.30;;;9.40;93.90;;;;;;5005346;28;20574;-61
2022/09/18 00:14:17;;;;;;;2.30;1.30;;;9.40;93.90;;;;;;4997154;28;20435;-60
2022/09/18 00:16:42;;;;;;;4.07;1.50;;;9.40;94.80;;;;;;4995006;28;20502;-59
2022/09/18 00:19:09;;;;;;;5.90;1.50;;;9.40;95.00;;;;;;5001157;28;20459;-59
2022/09/18 00:21:36;;;;;;;4.23;1.40;;;9.40;95.20;;;;;;4998143;28;20447;-59
2022/09/18 00:24:03;;;;;;;2.30;1.20;;;9.40;95.30;;;;;;4996820;28;20432;-59
2022/09/18 00:26:29;;;;;;;3.20;1.50;;;9.40;95.90;;;;;;4998434;28;21029;-59
2022/09/18 00:28:57;;;;;;;2.40;1.40;;;9.40;96.00;;;;;;5001060;28;20471;-59
2022/09/18 00:31:26;;;;;;;3.47;1.30;;;9.40;95.70;;;;;;4999406;28;20444;-58
2022/09/18 00:33:52;;;;;;;3.43;1.30;;;9.40;96.60;;;;;;4998292;28;20514;-59
2022/09/18 00:36:19;;;;;;;10.27;1.90;;;9.40;96.20;;;;;;4997220;28;20459;-59
2022/09/18 00:38:46;;;;;;;1.30;1.20;;;9.40;96.40;;;;;;4998885;28;20439;-58
2022/09/18 00:41:15;;;;;;;1.40;1.20;;;9.30;97.10;;;;;;4999071;28;20435;-58
2022/09/18 00:43:41;;;;;;;4.27;1.50;;;9.30;97.60;;;;;;4997169;28;20436;-60
2022/09/18 00:46:27;;;;;;;1.50;1.30;;;9.30;98.00;;;;;;4997294;28;20475;-59
2022/09/18 00:49:27;;;;;;;3.13;1.50;;;9.20;99.30;;;;;;4998014;28;20462;-60
2022/09/18 00:51:55;;;;;;;6.20;1.60;;;9.20;99.90;;;;;;4992502;28;20440;-61
2022/09/18 00:54:33;;;;;;;4.40;1.77;;;9.20;99.90;;;;;;5005520;28;20442;-59
2022/09/18 00:57:03;;;;;;;1.60;1.50;;;9.20;99.90;;;;;;4996965;28;20577;-60
2022/09/18 00:59:32;;;;;;;2.43;1.80;;;9.20;99.90;;;;;;4997358;28;20475;-60
2022/09/18 01:01:59;;;;;;;3.03;1.70;;;9.20;99.90;;;;;;4998767;28;20759;-60
2022/09/18 01:04:27;;;;;;;2.53;1.83;;;9.20;99.90;;;;;;5003280;28;20519;-60
2022/09/18 01:07:24;;;;;;;3.73;1.60;;;9.20;99.90;;;;;;4998910;28;20462;-60
2022/09/18 01:10:22;;;;;;;2.83;1.83;;;9.20;99.90;;;;;;5000521;28;20444;-60
2022/09/18 01:13:09;;;;;;;3.27;1.50;;;9.10;99.90;;;;;;4991903;28;20526;-61
2022/09/18 01:16:01;;;;;;;4.00;1.70;;;9.10;99.90;;;;;;4998209;28;20436;-60
2022/09/18 01:18:36;;;;;;;1.87;1.60;;;9.10;99.90;;;;;;5004461;28;20541;-61
2022/09/18 01:21:11;;;;;;;7.97;1.90;;;9.10;99.90;;;;;;5004006;28;20464;-60
2022/09/18 01:24:14;;;;;;;2.80;1.33;;;9.10;99.90;;;;;;5002391;28;20431;-60
2022/09/18 01:26:48;;;;;;;7.43;1.60;;;9.10;99.90;;;;;;5004667;28;20489;-60
2022/09/18 01:29:23;;;;;;;3.23;1.50;;;9.10;99.90;;;;;;5014902;28;20536;-61
2022/09/18 01:31:55;;;;;;;1.63;1.53;;;9.00;99.90;;;;;;5002310;28;20423;-61
2022/09/18 01:34:29;;;;;;;2.80;1.50;;;9.00;99.90;;;;;;5002521;28;20778;-59
2022/09/18 01:37:10;;;;;;;3.30;1.50;;;9.00;99.90;;;;;;5004137;28;20483;-60
2022/09/18 01:39:45;;;;;;;3.13;1.80;;;9.00;99.90;;;;;;5007678;28;20874;-60
2022/09/18 01:42:13;;;;;;;4.20;1.60;;;9.00;99.90;;;;;;5008502;28;20435;-60
2022/09/18 01:44:43;;;;;;;4.20;1.50;;;9.00;99.90;;;;;;5003528;28;20435;-59
2022/09/18 01:47:12;;;;;;;5.70;2.30;;;8.90;99.90;;;;;;5004961;28;20486;-59
2022/09/18 01:49:44;;;;;;;2.17;1.87;;;8.90;99.90;;;;;;5000142;28;20466;-60
2022/09/18 01:52:26;;;;;;;2.87;1.73;;;8.90;99.90;;;;;;5003577;28;20435;-63
2022/09/18 01:54:56;;;;;;;2.10;1.40;;;8.90;99.90;;;;;;5005494;28;20431;-60
2022/09/18 01:57:32;;;;;;;3.33;2.10;;;8.90;99.90;;;;;;4999146;28;20776;-59
2022/09/18 02:00:08;;;;;;;2.90;1.90;;;8.90;99.90;;;;;;5000002;28;20542;-60
2022/09/18 02:03:00;;;;;;;2.30;1.50;;;8.90;99.90;;;;;;5000864;28;20473;-61
2022/09/18 02:05:33;;;;;;;6.20;1.50;;;8.90;99.90;;;;;;5006433;28;20518;-60
2022/09/18 02:08:24;;;;;;;3.73;1.63;;;8.80;99.90;;;;;;4998234;28;20486;-60
2022/09/18 02:11:12;;;;;;;2.20;1.60;;;8.80;99.90;;;;;;5000793;28;20423;-61
2022/09/18 02:14:10;;;;;;;1.80;1.50;;;8.80;99.90;;;;;;4999951;28;20481;-60
2022/09/18 02:16:44;;;;;;;2.00;1.50;;;8.80;99.90;;;;;;5000440;28;20451;-61
2022/09/18 02:19:30;;;;;;;3.23;1.60;;;8.80;99.90;;;;;;5000317;28;20509;-60
2022/09/18 02:21:58;;;;;;;1.60;1.50;;;8.70;99.90;;;;;;5003108;28;20449;-60
2022/09/18 02:24:28;;;;;;;4.63;1.80;;;8.70;99.90;;;;;;5015282;28;20493;-61
2022/09/18 02:26:56;;;;;;;4.20;1.60;;;8.70;99.90;;;;;;4999938;28;20945;-60
2022/09/18 02:29:23;;;;;;;3.00;1.70;;;8.60;99.90;;;;;;4998701;28;21093;-61
2022/09/18 02:31:50;;;;;;;2.53;1.67;;;8.60;99.90;;;;;;5000450;28;20431;-60
2022/09/18 02:34:17;;;;;;;1.67;1.57;;;8.60;99.90;;;;;;5002205;28;20443;-62
2022/09/18 02:36:55;;;;;;;5.67;1.60;;;8.60;99.90;;;;;;5007548;28;21023;-61
2022/09/18 02:39:56;;;;;;;5.17;1.90;;;8.60;99.90;;;;;;5006599;28;20439;-61
2022/09/18 02:42:31;;;;;;;2.30;1.60;;;8.50;99.90;;;;;;5000380;28;20526;-60
2022/09/18 02:45:07;;;;;;;4.43;2.03;;;8.50;99.90;;;;;;4998354;28;20431;-59
2022/09/18 02:47:55;;;;;;;2.13;1.70;;;8.50;99.90;;;;;;4999478;28;20571;-59
2022/09/18 02:50:30;;;;;;;2.43;1.53;;;8.50;99.90;;;;;;5000510;28;20442;-59
2022/09/18 02:52:55;;;;;;;9.30;2.40;;;8.40;99.90;;;;;;5017910;28;20510;-59
2022/09/18 02:55:26;;;;;;;1.90;1.80;;;8.40;99.90;;;;;;5004066;28;20893;-59
2022/09/18 02:57:57;;;;;;;6.27;1.70;;;8.40;99.90;;;;;;4999019;28;20207;-60
2022/09/18 03:00:24;;;;;;;3.10;2.00;;;8.40;99.90;;;;;;4998021;28;20447;-59
2022/09/18 03:02:50;;;;;;;4.97;2.50;;;8.40;99.90;;;;;;5002789;28;20485;-60
2022/09/18 03:05:16;;;;;;;4.00;2.03;;;8.40;99.90;;;;;;5003572;28;20447;-59
2022/09/18 03:07:42;;;;;;;5.20;2.17;;;8.30;99.90;;;;;;5005920;28;20564;-59
2022/09/18 03:10:10;;;;;;;2.17;1.93;;;8.30;99.90;;;;;;5008087;28;20411;-59
2022/09/18 03:12:36;;;;;;;7.90;2.00;;;8.30;99.90;;;;;;5009016;28;20284;-60
2022/09/18 03:15:02;;;;;;;13.43;2.50;;;8.30;99.90;;;;;;5007128;28;20432;-59
2022/09/18 03:17:28;;;;;;;4.20;1.73;;;8.20;99.90;;;;;;4996172;28;20461;-59
2022/09/18 03:19:53;;;;;;;5.23;2.00;;;8.20;99.90;;;;;;5009862;28;20235;-59
2022/09/18 03:22:19;;;;;;;2.63;1.87;;;8.20;99.90;;;;;;5007364;28;20263;-59
2022/09/18 03:24:44;;;;;;;3.73;1.67;;;8.20;99.90;;;;;;5007486;28;20180;-59
2022/09/18 03:27:10;;;;;;;3.83;2.03;;;8.20;99.90;;;;;;5010798;28;20279;-60
2022/09/18 03:29:36;;;;;;;4.60;2.53;;;8.20;99.90;;;;;;5003615;28;20278;-59
2022/09/18 03:32:02;;;;;;;5.47;1.70;;;8.20;99.90;;;;;;5004656;28;20628;-59
2022/09/18 03:34:27;;;;;;;2.40;1.67;;;8.20;99.90;;;;;;4992399;28;20742;-60
2022/09/18 03:36:53;;;;;;;4.23;1.50;;;8.20;99.90;;;;;;5009528;28;20542;-61
2022/09/18 03:39:19;;;;;;;2.03;1.70;;;8.20;99.90;;;;;;5007769;28;20227;-61
2022/09/18 03:41:45;;;;;;;1.97;1.80;;;8.20;99.90;;;;;;5008825;28;20611;-61
2022/09/18 03:44:10;;;;;;;4.00;1.57;;;8.20;99.90;;;;;;5004724;28;20252;-60
2022/09/18 03:46:36;;;;;;;2.50;1.97;;;8.20;99.90;;;;;;5006633;28;20215;-59
2022/09/18 03:49:02;;;;;;;1.97;1.40;;;8.20;99.90;;;;;;5008596;28;20493;-59
2022/09/18 03:51:27;;;;;;;6.33;1.80;;;8.20;99.90;;;;;;5020947;22;21154;-61
2022/09/18 03:53:53;;;;;;;6.03;1.90;;;8.10;99.90;;;;;;5025538;28;20603;-60
2022/09/18 03:56:19;;;;;;;2.90;1.53;;;8.10;99.90;;;;;;5018537;28;20267;-62
2022/09/18 03:58:44;;;;;;;1.83;1.60;;;8.10;99.90;;;;;;5030345;28;20230;-61
2022/09/18 04:01:12;;;;;;;3.93;2.13;;;8.10;99.90;;;;;;5027351;28;20659;-61
2022/09/18 04:03:38;;;;;;;3.80;1.90;;;8.10;99.90;;;;;;5007363;28;20196;-61
2022/09/18 04:06:04;;;;;;;1.50;1.40;;;8.10;99.90;;;;;;5000565;28;20513;-61
2022/09/18 04:08:30;;;;;;;3.90;1.47;;;8.10;99.90;;;;;;5004547;28;20523;-61
2022/09/18 04:10:55;;;;;;;3.07;1.60;;;8.10;99.90;;;;;;5002033;28;20523;-61
2022/09/18 04:13:21;;;;;;;1.60;1.50;;;8.00;99.90;;;;;;4999914;28;20207;-61
2022/09/18 04:15:49;;;;;;;1.60;1.47;;;8.10;99.90;;;;;;5000917;28;20179;-61
2022/09/18 04:18:15;;;;;;;1.70;1.60;;;8.10;99.90;;;;;;4995665;28;20177;-61
2022/09/18 04:20:41;;;;;;;3.43;1.70;;;8.00;99.90;;;;;;5000311;28;20923;-62
2022/09/18 04:23:07;;;;;;;3.27;1.80;;;8.10;99.90;;;;;;5001462;28;20481;-62
2022/09/18 04:25:33;;;;;;;8.90;2.20;;;8.00;99.90;;;;;;4999954;28;20193;-61
2022/09/18 04:27:59;;;;;;;4.40;2.00;;;8.00;99.90;;;;;;4997416;28;20844;-61
2022/09/18 04:30:25;;;;;;;3.90;1.60;;;8.00;99.90;;;;;;4996431;28;20690;-61
2022/09/18 04:32:50;;;;;;;4.90;1.90;;;8.00;99.90;;;;;;5000817;28;20450;-61
2022/09/18 04:35:17;;;;;;;3.90;2.00;;;8.00;99.90;;;;;;5000408;28;20230;-61
2022/09/18 04:37:43;;;;;;;3.03;1.90;;;8.00;99.90;;;;;;5001161;28;20577;-61
2022/09/18 04:40:09;;;;;;;3.00;1.77;;;8.00;99.90;;;;;;5001070;28;20420;-61
2022/09/18 04:42:35;;;;;;;1.80;1.70;;;8.00;99.90;;;;;;4998249;28;20188;-61
2022/09/18 04:45:01;;;;;;;2.20;1.63;;;8.00;99.90;;;;;;5000893;28;20847;-61
2022/09/18 04:47:26;;;;;;;4.00;1.60;;;8.10;99.90;;;;;;4999634;28;20181;-61
2022/09/18 04:49:52;;;;;;;3.70;1.47;;;8.10;99.90;;;;;;5000930;28;20176;-61
2022/09/18 04:52:18;;;;;;;3.83;1.70;;;8.10;99.90;;;;;;4998850;28;20204;-61
2022/09/18 04:54:44;;;;;;;10.87;1.77;;;8.10;99.90;;;;;;5001440;28;20527;-61
2022/09/18 04:57:09;;;;;;;3.20;1.80;;;8.10;99.90;;;;;;5001017;28;20195;-61
2022/09/18 04:59:35;;;;;;;1.70;1.60;;;8.20;99.90;;;;;;5007278;28;20671;-61
2022/09/18 05:02:01;;;;;;;3.33;1.90;;;8.20;99.90;;;;;;5005217;28;20199;-62
2022/09/18 05:04:27;;;;;;;1.60;1.50;;;8.20;99.90;;;;;;4999585;28;20258;-60
2022/09/18 05:06:52;;;;;;;1.70;1.60;;;8.20;99.90;;;;;;5001902;28;20180;-61
2022/09/18 05:09:18;;;;;;;4.60;1.60;;;8.20;99.90;;;;;;5004461;28;20204;-62
2022/09/18 05:11:43;;;;;;;1.80;1.70;;;8.30;99.90;;;;;;5004219;28;20208;-61
2022/09/18 05:14:09;;;;;;;7.80;1.90;;;8.30;99.90;;;;;;5002413;28;20267;-61
2022/09/18 05:16:35;;;;;;;2.43;1.80;;;8.30;99.90;;;;;;5008810;28;20200;-61
2022/09/18 05:19:00;;;;;;;2.63;1.77;;;8.30;99.90;;;;;;5008456;28;20187;-61
2022/09/18 05:21:26;;;;;;;5.10;1.73;;;8.30;99.90;;;;;;4998944;28;20223;-61
2022/09/18 05:23:51;;;;;;;7.63;1.70;;;8.30;99.90;;;;;;4999808;28;20810;-60
2022/09/18 05:26:17;;;;;;;2.80;2.00;;;8.40;99.90;;;;;;5005256;28;20188;-61
2022/09/18 05:28:43;;;;;;;6.03;1.93;;;8.40;99.90;;;;;;4998353;28;20580;-61
2022/09/18 05:31:08;;;;;;;2.90;1.70;;;8.40;99.90;;;;;;4999165;28;20169;-61
2022/09/18 05:33:35;;;;;;;5.50;1.73;;;8.40;99.90;;;;;;5000961;28;20666;-61
2022/09/18 05:36:03;;;;;;;1.93;1.70;;;8.40;99.90;;;;;;5000549;28;20173;-61
2022/09/18 05:38:28;;;;;;;2.20;1.80;;;8.40;99.90;;;;;;4998213;28;20439;-61
2022/09/18 05:41:01;;;;;;;2.93;2.07;;;8.40;99.90;;;;;;5000421;28;20439;-61
2022/09/18 05:43:28;;;;;;;4.07;1.67;;;8.50;99.90;;;;;;5002965;28;20386;-61
2022/09/18 05:45:54;;;;;;;6.33;2.23;;;8.50;99.90;;;;;;4993861;28;20471;-60
2022/09/18 05:48:20;;;;;;;2.73;1.63;;;8.50;99.90;;;;;;5000045;28;20562;-61
2022/09/18 05:50:45;;;;;;;7.43;2.00;;;8.50;99.90;;;;;;5001034;28;20299;-59
2022/09/18 05:53:16;;;;;;;3.03;1.80;;;8.50;99.90;;;;;;5007451;28;20747;-60
2022/09/18 05:55:42;;;;;;;3.87;1.80;;;8.50;99.90;;;;;;5000523;28;20188;-59
2022/09/18 05:58:15;;;;;;;2.63;2.23;;;8.50;99.90;;;;;;5007506;28;20597;-59
2022/09/18 06:00:43;;;;;;;7.60;2.17;;;8.50;99.90;;;;;;5000749;28;20411;-59
2022/09/18 06:03:11;;;;;;;2.53;2.00;;;8.50;99.90;;;;;;5005915;28;20459;-61
2022/09/18 06:05:37;;;;;;;4.83;2.27;;;8.50;99.90;;;;;;5020049;28;20435;-61
2022/09/18 06:08:09;;;;;;;3.67;2.07;;;8.50;99.90;;;;;;5006218;28;20505;-60
2022/09/18 06:10:36;;;;;;;6.63;1.90;;;8.50;99.90;;;;;;5007120;28;20463;-61
2022/09/18 06:13:05;;;;;;;2.37;1.80;;;8.50;99.90;;;;;;5005572;28;20873;-61
2022/09/18 06:15:32;;;;;;;5.57;2.37;;;8.60;99.90;;;;;;5007877;28;20431;-61
2022/09/18 06:17:58;;;;;;;11.43;2.20;;;8.60;99.90;;;;;;5007254;28;20445;-61
2022/09/18 06:20:24;;;;;;;6.50;2.60;;;8.60;99.90;;;;;;5009860;28;20450;-61
2022/09/18 06:22:49;;;;;;;5.17;2.17;;;8.70;99.90;;;;;;5004836;28;20660;-61
2022/09/18 06:25:18;;;;;;;5.63;2.33;;;8.70;99.90;;;;;;5004436;28;20185;-61
2022/09/18 06:27:43;;;;;;;3.60;1.70;;;8.70;99.90;;;;;;5008984;28;21758;-61
2022/09/18 06:30:10;;;;;;;2.93;1.70;;;8.70;99.90;;;;;;5009866;28;20927;-61
2022/09/18 06:32:35;;;;;;;2.40;1.90;;;8.80;99.90;;;;;;5012259;28;20200;-61
2022/09/18 06:35:01;;;;;;;4.10;1.90;;;8.80;99.80;;;;;;5005616;28;20431;-61
2022/09/18 06:37:26;;;;;;;8.30;2.30;;;8.80;99.90;;;;;;5007417;28;20550;-61
2022/09/18 06:39:52;;;;;;;2.17;1.90;;;8.90;99.60;;;;;;5007069;28;20185;-62
2022/09/18 06:42:18;;;;;;;4.40;2.30;;;8.90;99.70;;;;;;5008242;28;20232;-62
2022/09/18 06:44:43;;;;;;;2.03;1.60;;;9.00;99.80;;;;;;5009434;28;20553;-60
2022/09/18 06:47:09;;;;;;;3.10;1.87;;;9.00;98.60;;;;;;5006307;28;20200;-60
2022/09/18 06:49:34;;;;;;;1.77;1.67;;;9.10;98.40;;;;;;5005597;28;20220;-61
2022/09/18 06:52:00;;;;;;;2.10;1.90;;;9.10;98.00;;;;;;5006761;28;20208;-61
2022/09/18 06:54:26;;;;;;;4.30;1.80;;;9.20;97.40;;;;;;5007985;28;20204;-61
2022/09/18 06:56:51;;;;;;;2.10;1.90;;;9.30;96.60;;;;;;4999096;28;20181;-61
2022/09/18 06:59:17;;;;;;;4.80;1.90;;;9.40;95.50;;;;;;4999347;28;20185;-61
2022/09/18 07:01:45;;;;;;;2.70;1.80;;;9.40;95.10;;;;;;5003321;28;20262;-61
2022/09/18 07:04:11;;;;;;;1.53;1.37;;;9.50;96.30;;;;;;5003195;28;20173;-61
2022/09/18 07:06:36;;;;;;;2.50;1.40;;;9.60;93.90;;;;;;5003314;28;20439;-61
2022/09/18 07:09:02;;;;;;;7.43;1.73;;;9.70;91.80;;;;;;5000887;28;20554;-61
2022/09/18 07:11:27;;;;;;;2.63;1.70;;;9.80;91.10;;;;;;5001291;28;20619;-62
2022/09/18 07:13:53;;;;;;;2.50;1.30;;;9.80;88.30;;;;;;5001470;28;20208;-62
2022/09/18 07:16:19;;;;;;;2.80;1.80;;;9.80;85.00;;;;;;5005841;28;20205;-62
2022/09/18 07:18:47;;;;;;;4.30;1.73;;;9.80;88.00;;;;;;5008868;28;20189;-62
2022/09/18 07:21:13;;;;;;;1.93;1.67;;;9.80;86.70;;;;;;5002860;28;20168;-61
2022/09/18 07:23:38;;;;;;;3.80;1.50;;;9.90;90.60;;;;;;5004459;28;20579;-62
2022/09/18 07:26:04;;;;;;;1.70;1.60;;;9.90;90.60;;;;;;5003277;28;20181;-62
2022/09/18 07:28:30;;;;;;;2.73;1.50;;;10.00;86.80;;;;;;5002903;28;20218;-62
2022/09/18 07:31:04;;;;;;;1.97;1.40;;;10.10;83.30;;;;;;5006916;28;20922;-62
2022/09/18 07:33:30;;;;;;;2.40;1.60;;;10.20;81.20;;;;;;5000197;28;21095;-62
2022/09/18 07:35:59;;;;;;;3.27;1.43;;;10.30;82.20;;;;;;5003579;28;20493;-60
2022/09/18 07:38:25;;;;;;;4.20;1.40;;;10.40;82.20;;;;;;5000103;28;20477;-60
2022/09/18 07:40:51;;;;;;;7.33;1.70;;;10.50;80.30;;;;;;5004240;28;20430;-61
2022/09/18 07:43:17;;;;;;;1.40;1.30;;;10.50;78.60;;;;;;5006054;28;20205;-60
2022/09/18 07:45:43;;;;;;;4.87;1.60;;;10.50;76.10;;;;;;4998652;28;20439;-58
2022/09/18 07:48:09;;;;;;;2.87;1.63;;;10.60;76.30;;;;;;5000229;28;20200;-60
2022/09/18 07:50:34;;;;;;;5.80;1.70;;;10.60;76.70;;;;;;4998298;28;20523;-60
2022/09/18 07:53:02;;;;;;;5.80;1.30;;;10.70;75.20;;;;;;4998446;28;20204;-59
2022/09/18 07:55:28;;;;;;;1.70;1.40;;;10.70;72.60;;;;;;4997234;28;20196;-60
2022/09/18 07:58:03;;;;;;;7.73;1.27;;;10.80;72.50;;;;;;4994075;28;20439;-60
2022/09/18 08:00:32;;;;;;;2.40;1.23;;;10.90;71.70;;;;;;4999057;28;20207;-59
2022/09/18 08:03:10;;;;;;;2.83;1.53;;;11.00;71.10;;;;;;5000332;28;20490;-60
2022/09/18 08:05:36;;;;;;;1.43;1.20;;;11.10;67.50;;;;;;4996405;28;20444;-60
2022/09/18 08:08:11;;;;;;;6.03;1.60;;;11.20;66.20;;;;;;5001540;28;20468;-60
2022/09/18 08:10:38;;;;;;;2.00;1.30;;;11.20;66.30;;;;;;4996055;28;20957;-60
2022/09/18 08:13:04;;;;;;;3.00;1.23;;;11.20;65.10;;;;;;4990980;28;20467;-61
2022/09/18 08:15:31;;;;;;;2.77;1.20;;;11.20;66.00;;;;;;4993854;28;20439;-61
2022/09/18 08:17:57;;;;;;;1.63;1.10;;;11.30;65.10;;;;;;4995640;28;20436;-61
2022/09/18 08:20:22;;;;;;;1.80;1.10;;;11.40;65.30;;;;;;4996298;28;20431;-61
2022/09/18 08:22:49;;;;;;;1.87;1.10;;;11.50;64.70;;;;;;4995481;28;20211;-62
2022/09/18 08:25:15;;;;;;;4.30;1.60;;;11.50;65.10;;;;;;4998025;28;20849;-61
2022/09/18 08:27:41;;;;;;;4.77;1.23;;;11.70;65.00;;;;;;4992438;28;20440;-61
2022/09/18 08:30:10;;;;;;;2.73;1.47;;;11.80;64.90;;;;;;4999178;28;20455;-61
2022/09/18 08:32:36;;;;;;;3.23;1.20;;;12.00;63.20;;;;;;5002287;28;20458;-60
2022/09/18 08:35:03;;;;;;;2.20;1.10;;;12.10;61.30;;;;;;4996099;28;20443;-61
2022/09/18 08:37:29;;;;;;;6.67;1.47;;;12.10;62.70;;;;;;5006805;28;20183;-60
2022/09/18 08:39:55;;;;;;;3.27;1.47;;;12.20;63.30;;;;;;5002577;28;20435;-61
2022/09/18 08:42:46;;;;;;;4.47;1.47;;;12.20;62.30;;;;;;4996915;28;21525;-61
2022/09/18 08:45:14;;;;;;;1.40;1.30;;;12.20;61.70;;;;;;5006569;28;20447;-61
2022/09/18 08:48:02;;;;;;;4.10;1.20;;;12.10;61.80;;;;;;4996190;28;20835;-59
2022/09/18 08:50:36;;;;;;;1.63;1.20;;;12.10;61.80;;;;;;4997024;28;20465;-59
2022/09/18 08:53:10;;;;;;;1.60;1.33;;;12.00;60.90;;;;;;5002098;28;20561;-60
2022/09/18 08:55:40;;;;;;;2.70;1.50;;;12.00;61.60;;;;;;5007529;28;20435;-60
2022/09/18 08:58:46;;;;;;;3.33;1.37;;;12.00;62.00;;;;;;5011610;28;20431;-60
2022/09/18 09:01:17;;;;;;;2.00;1.20;;;12.10;62.80;;;;;;4997773;28;20489;-62
2022/09/18 09:04:00;;;;;;;5.90;2.17;;;12.20;63.30;;;;;;5002926;28;20502;-61
2022/09/18 09:07:13;;;;;;;2.80;1.30;;;12.20;61.90;;;;;;5007117;28;20492;-61
2022/09/18 09:09:53;;;;;;;3.70;1.43;;;12.10;61.10;;;;;;5005053;28;20473;-62
2022/09/18 09:12:27;;;;;;;2.80;1.10;;;12.10;62.80;;;;;;5014769;28;20464;-62
2022/09/18 09:15:18;;;;;;;6.77;2.90;;;12.10;62.30;;;;;;5002252;28;20441;-61
2022/09/18 09:17:45;;;;;;;2.27;1.17;;;12.00;62.10;;;;;;5000487;28;20439;-61
2022/09/18 09:20:44;;;;;;;1.63;1.17;;;12.10;63.30;;;;;;4991216;28;20435;-61
2022/09/18 09:23:39;;;;;;;5.50;1.30;;;12.10;63.40;;;;;;5008239;28;20453;-61
2022/09/18 09:26:09;;;;;;;2.30;1.30;;;12.20;63.20;;;;;;5000853;28;21012;-61
2022/09/18 09:28:52;;;;;;;2.23;1.53;;;12.20;61.60;;;;;;4998925;28;20463;-61
2022/09/18 09:31:25;;;;;;;1.37;1.27;;;12.10;61.10;;;;;;5001109;28;20451;-62
2022/09/18 09:34:14;;;;;;;7.20;1.40;;;12.00;61.50;;;;;;5004128;28;20518;-61
2022/09/18 09:36:41;;;;;;;1.77;1.10;;;11.80;61.90;;;;;;5014352;28;20428;-61
2022/09/18 09:39:12;;;;;;;1.37;1.27;;;11.70;62.30;;;;;;5001153;28;20526;-62
2022/09/18 09:41:41;;;;;;;1.30;1.20;;;11.60;63.10;;;;;;5002565;28;20460;-62
2022/09/18 09:44:25;;;;;;;3.03;1.80;;;11.60;63.20;;;;;;5006067;28;20424;-61
2022/09/18 09:46:56;;;;;;;1.67;1.57;;;11.60;63.10;;;;;;5004887;28;20862;-61
2022/09/18 09:49:27;;;;;;;4.83;1.20;;;11.60;62.50;;;;;;5004809;28;20467;-61
2022/09/18 09:52:14;;;;;;;2.17;1.20;;;11.60;62.60;;;;;;5002118;28;20463;-62
2022/09/18 09:54:41;;;;;;;2.77;1.37;;;11.60;62.80;;;;;;5005232;28;21004;-62
2022/09/18 09:57:34;;;;;;;5.83;1.63;;;11.70;63.20;;;;;;5005719;28;20806;-60
2022/09/18 10:00:09;;;;;;;6.50;2.00;;;11.70;61.90;;;;;;5018444;28;20435;-63
2022/09/18 10:02:46;;;;;;;2.97;1.80;;;11.70;61.20;;;;;;5002633;28;20485;-61
2022/09/18 10:05:17;;;;;;;7.10;1.70;;;11.80;61.20;;;;;;5007529;28;20420;-62
2022/09/18 10:07:51;;;;;;;2.00;1.73;;;11.80;61.80;;;;;;5006595;28;20490;-63
2022/09/18 10:10:25;;;;;;;2.83;1.53;;;11.90;60.30;;;;;;5001070;28;20938;-62
2022/09/18 10:12:52;;;;;;;6.33;1.90;;;11.90;60.10;;;;;;5000831;28;20455;-62
2022/09/18 10:15:41;;;;;;;4.80;2.33;;;11.90;60.60;;;;;;5002075;28;20440;-62
2022/09/18 10:18:13;;;;;;;4.97;1.60;;;12.00;60.50;;;;;;5002262;28;20440;-62
2022/09/18 10:20:39;;;;;;;6.00;1.60;;;12.00;59.50;;;;;;5003914;28;20478;-60
2022/09/18 10:23:24;;;;;;;2.50;1.23;;;12.00;60.10;;;;;;5002997;28;20469;-62
2022/09/18 10:26:00;;;;;;;2.30;1.40;;;12.00;59.90;;;;;;5006584;28;20435;-61
2022/09/18 10:28:28;;;;;;;4.53;1.40;;;11.90;59.40;;;;;;5001843;28;20466;-62
2022/09/18 10:30:53;;;;;;;2.40;1.43;;;11.90;60.10;;;;;;5002446;28;20422;-61
2022/09/18 10:33:47;;;;;;;4.00;1.60;;;11.90;59.50;;;;;;5001787;28;20534;-61
2022/09/18 10:36:18;;;;;;;1.60;1.50;;;12.00;59.20;;;;;;5004322;28;20181;-62
2022/09/18 10:38:44;;;;;;;2.30;1.50;;;12.10;59.60;;;;;;5007173;28;20720;-62
2022/09/18 10:41:25;;;;;;;6.30;2.50;;;12.20;59.40;;;;;;5003236;28;21079;-62
2022/09/18 10:44:17;;;;;;;3.87;1.80;;;12.40;58.30;;;;;;4997973;28;20443;-62
2022/09/18 10:46:59;;;;;;;4.03;1.30;;;12.60;58.50;;;;;;5005707;28;20431;-62
2022/09/18 10:49:31;;;;;;;2.40;1.40;;;12.80;57.70;;;;;;5006604;28;20516;-62
2022/09/18 10:52:28;;;;;;;2.97;1.13;;;12.90;56.90;;;;;;5001426;28;20463;-62
2022/09/18 10:55:06;;;;;;;2.27;1.30;;;13.00;56.00;;;;;;5004580;28;20469;-62
2022/09/18 10:57:44;;;;;;;2.90;1.10;;;13.10;55.50;;;;;;5002234;28;20420;-62
2022/09/18 11:00:15;;;;;;;3.60;1.10;;;13.10;55.40;;;;;;5002453;28;20435;-62
2022/09/18 11:02:49;;;;;;;3.33;1.23;;;13.00;55.40;;;;;;5002285;28;20456;-62
2022/09/18 11:05:35;;;;;;;4.30;1.00;;;12.90;55.90;;;;;;5002596;28;20432;-62
2022/09/18 11:08:05;;;;;;;1.47;1.37;;;12.90;57.00;;;;;;5003379;28;20467;-62
2022/09/18 11:10:32;;;;;;;1.40;1.17;;;12.90;56.80;;;;;;4998241;28;20648;-62
2022/09/18 11:13:01;;;;;;;1.47;1.10;;;13.00;56.30;;;;;;5000542;28;20998;-62
2022/09/18 11:15:29;;;;;;;2.87;1.30;;;13.10;56.00;;;;;;4999662;28;20527;-62
2022/09/18 11:17:57;;;;;;;1.17;0.90;;;13.20;55.00;;;;;;5003704;28;20470;-62
2022/09/18 11:20:27;;;;;;;1.10;1.00;;;13.30;53.50;;;;;;5002137;28;20440;-61
2022/09/18 11:22:53;;;;;;;1.10;1.00;;;13.50;53.80;;;;;;5003372;28;20828;-61
2022/09/18 11:25:20;;;;;;;1.73;1.10;;;13.70;54.60;;;;;;5007153;28;20930;-62
2022/09/18 11:27:51;;;;;;;1.47;1.30;;;13.90;52.10;;;;;;5008212;28;20517;-62
2022/09/18 11:30:26;;;;;;;4.97;1.30;;;13.90;51.00;;;;;;5002387;28;20439;-60
2022/09/18 11:33:04;;;;;;;2.80;1.20;;;13.90;51.20;;;;;;5002818;28;20545;-62
2022/09/18 11:35:31;;;;;;;1.83;1.00;;;13.90;51.60;;;;;;5003421;28;20810;-61
2022/09/18 11:38:05;;;;;;;3.97;1.20;;;13.80;50.60;;;;;;5005657;28;20428;-62
2022/09/18 11:40:41;;;;;;;2.80;1.50;;;13.70;51.00;;;;;;5005420;28;20434;-63
2022/09/18 11:43:28;;;;;;;2.53;1.50;;;13.70;52.40;;;;;;5005275;28;20463;-59
2022/09/18 11:46:06;;;;;;;3.07;1.40;;;13.70;51.20;;;;;;5001612;28;20983;-59
2022/09/18 11:48:39;;;;;;;4.23;0.97;;;13.70;51.80;;;;;;5002378;28;20565;-59
2022/09/18 11:51:14;;;;;;;1.50;1.10;;;13.70;52.20;;;;;;5004192;28;20432;-59
2022/09/18 11:53:47;;;;;;;1.00;1.00;;;13.70;52.00;;;;;;5002190;28;20431;-59
2022/09/18 11:56:26;;;;;;;3.43;1.10;;;13.70;52.30;;;;;;5000688;28;20419;-59
2022/09/18 11:59:00;;;;;;;1.30;1.10;;;13.70;52.70;;;;;;4999644;28;20431;-59
2022/09/18 12:01:38;;;;;;;1.13;1.03;;;13.70;52.80;;;;;;5001761;28;20531;-59
2022/09/18 12:04:28;;;;;;;1.37;1.00;;;13.70;52.90;;;;;;5001526;28;21117;-58
2022/09/18 12:07:22;;;;;;;2.57;1.13;;;13.70;53.10;;;;;;5002152;28;20442;-60
2022/09/18 12:10:11;;;;;;;1.00;1.00;;;13.70;54.10;;;;;;4999907;28;20834;-57
2022/09/18 12:12:44;;;;;;;0.90;0.90;;;13.70;53.30;;;;;;5003935;28;20440;-59
2022/09/18 12:15:26;;;;;;;2.30;1.13;;;13.70;54.10;;;;;;5003618;28;20419;-59
2022/09/18 12:18:09;;;;;;;1.57;0.90;;;13.70;53.60;;;;;;5002387;28;20426;-60
2022/09/18 12:20:45;;;;;;;3.17;1.30;;;13.70;54.50;;;;;;5004871;28;20436;-59
2022/09/18 12:23:19;;;;;;;1.40;1.20;;;13.60;54.10;;;;;;4999561;28;20459;-59
2022/09/18 12:26:14;;;;;;;1.23;1.00;;;13.60;54.20;;;;;;5002466;28;20565;-58
2022/09/18 12:29:22;;;;;;;3.37;0.97;;;13.50;54.20;;;;;;5003515;28;20467;-59
2022/09/18 12:32:00;;;;;;;1.33;1.10;;;13.60;54.10;;;;;;4994867;28;20530;-58
2022/09/18 12:37:08;;;;;;;2.70;1.20;;;13.90;54.10;;;;;;5003856;28;20463;-53
2022/09/18 12:40:07;;;;;;;2.50;1.20;;;14.30;53.40;;;;;;5007352;28;20427;-54
2022/09/18 12:42:58;;;;;;;2.20;1.20;;;14.50;52.40;;;;;;5005326;28;20472;-55
2022/09/18 12:45:45;;;;;;;1.50;1.20;;;14.60;53.00;;;;;;5004576;28;20455;-54
2022/09/18 12:48:50;;;;;;;1.53;1.10;;;14.70;52.60;;;;;;5004170;28;20459;-53
2022/09/18 12:51:35;;;;;;;1.23;1.13;;;14.70;52.50;;;;;;4946636;28;20442;-55
2022/09/18 12:54:19;;;;;;;1.40;1.10;;;14.70;52.10;;;;;;4994185;28;20430;-53
2022/09/18 12:57:12;;;;;;;1.50;1.40;;;14.90;51.80;;;;;;5009507;28;20419;-54
2022/09/18 13:00:12;;;;;;;1.30;1.03;;;14.80;51.10;;;;;;5007064;28;20498;-53
2022/09/18 13:02:56;;;;;;;1.23;1.00;;;14.70;50.90;;;;;;4978395;28;20526;-53
2022/09/18 13:05:27;;;;;;;1.13;1.10;;;14.70;52.00;;;;;;5006295;28;20462;-56
2022/09/18 13:08:20;;;;;;;1.20;1.10;;;15.00;52.10;;;;;;5000494;28;20431;-54
2022/09/18 13:10:48;;;;;;;2.10;1.27;;;15.40;52.20;;;;;;4999194;28;20464;-53
2022/09/18 13:13:30;;;;;;;1.97;1.20;;;15.70;50.20;;;;;;5007832;28;20526;-61
2022/09/18 13:16:16;;;;;;;1.87;1.00;;;15.80;49.80;;;;;;5004057;28;21046;-60
2022/09/18 13:18:54;;;;;;;2.27;1.30;;;16.00;50.10;;;;;;5009191;28;20442;-60
2022/09/18 13:21:26;;;;;;;1.90;1.30;;;16.20;49.20;;;;;;5010609;28;20438;-60
2022/09/18 13:23:53;;;;;;;2.20;1.20;;;16.20;48.30;;;;;;5011107;28;20540;-60